createdAt,value
2023-09-27T00:00:00.691Z,15.50
2023-09-27T00:03:02.845Z,15.40
2023-09-27T00:06:05.227Z,15.40
2023-09-27T00:09:08.082Z,15.40
2023-09-27T00:12:11.522Z,15.40
2023-09-27T00:15:13.901Z,15.60
2023-09-27T00:18:16.202Z,15.40
2023-09-27T00:21:18.573Z,15.30
2023-09-27T00:24:20.766Z,15.30
2023-09-27T00:27:22.698Z,15.40
2023-09-27T00:30:24.918Z,15.40
2023-09-27T00:33:27.026Z,15.40
2023-09-27T00:36:29.108Z,15.20
2023-09-27T00:39:31.249Z,15.00
2023-09-27T00:42:33.542Z,15.10
2023-09-27T00:45:35.670Z,15.20
2023-09-27T00:48:38.083Z,15.00
2023-09-27T00:51:40.623Z,14.70
2023-09-27T00:54:42.673Z,14.50
2023-09-27T00:57:45.469Z,14.50
2023-09-27T01:00:51.198Z,14.70
2023-09-27T01:03:54.192Z,14.40
2023-09-27T01:06:56.769Z,14.70
2023-09-27T01:09:58.948Z,14.80
2023-09-27T01:13:01.412Z,14.70
2023-09-27T01:16:04.765Z,14.70
2023-09-27T01:19:08.984Z,14.80
2023-09-27T01:22:12.198Z,14.60
2023-09-27T01:25:18.069Z,14.90
2023-09-27T01:28:20.054Z,14.90
2023-09-27T01:31:22.068Z,14.60
2023-09-27T01:34:26.106Z,14.60
2023-09-27T01:37:28.189Z,14.60
2023-09-27T01:40:30.557Z,14.50
2023-09-27T01:43:32.871Z,14.60
2023-09-27T01:46:35.366Z,14.60
2023-09-27T01:49:37.416Z,14.20
2023-09-27T01:52:40.676Z,14.30
2023-09-27T01:55:42.690Z,14.30
2023-09-27T01:58:44.675Z,14.50
2023-09-27T02:01:46.761Z,14.50
2023-09-27T02:04:48.851Z,14.50
2023-09-27T02:07:51.038Z,14.60
2023-09-27T02:10:53.123Z,14.60
2023-09-27T02:13:55.257Z,14.60
2023-09-27T02:16:57.303Z,14.30
2023-09-27T02:19:59.401Z,14.40
2023-09-27T02:23:01.562Z,14.30
2023-09-27T02:26:03.730Z,14.50
2023-09-27T02:29:08.515Z,14.30
2023-09-27T02:32:10.904Z,14.30
2023-09-27T02:35:14.546Z,14.20
2023-09-27T02:38:16.687Z,14.40
2023-09-27T02:41:18.741Z,14.40
2023-09-27T02:44:20.883Z,14.40
2023-09-27T02:47:22.916Z,14.30
2023-09-27T02:50:25.038Z,14.40
2023-09-27T02:53:27.151Z,14.40
2023-09-27T02:56:29.512Z,14.50
2023-09-27T02:59:32.441Z,14.50
2023-09-27T03:02:34.850Z,14.40
2023-09-27T03:05:37.261Z,14.30
2023-09-27T03:08:39.557Z,14.20
2023-09-27T03:11:41.528Z,14.10
2023-09-27T03:14:43.559Z,14.30
2023-09-27T03:17:45.805Z,14.30
2023-09-27T03:20:48.280Z,14.30
2023-09-27T03:23:50.685Z,14.30
2023-09-27T03:26:55.161Z,14.20
2023-09-27T03:29:57.272Z,14.20
2023-09-27T03:32:59.367Z,14.20
2023-09-27T03:36:04.660Z,14.20
2023-09-27T03:39:08.192Z,14.00
2023-09-27T03:42:10.306Z,13.90
2023-09-27T03:45:14.489Z,14.10
2023-09-27T03:48:16.932Z,14.00
2023-09-27T03:51:25.732Z,14.10
2023-09-27T03:54:28.481Z,14.30
2023-09-27T03:57:30.731Z,14.00
2023-09-27T04:00:34.168Z,14.00
2023-09-27T04:03:36.325Z,14.10
2023-09-27T04:06:38.626Z,14.00
2023-09-27T04:09:40.674Z,14.10
2023-09-27T04:12:42.661Z,13.90
2023-09-27T04:15:44.715Z,13.40
2023-09-27T04:18:46.679Z,13.20
2023-09-27T04:21:48.672Z,13.30
2023-09-27T04:24:50.661Z,13.40
2023-09-27T04:27:52.699Z,12.90
2023-09-27T04:30:55.774Z,13.30
2023-09-27T04:33:57.798Z,13.40
2023-09-27T04:36:59.763Z,13.50
2023-09-27T04:40:01.996Z,13.60
2023-09-27T04:43:04.313Z,13.40
2023-09-27T04:46:06.461Z,13.40
2023-09-27T04:49:08.835Z,13.20
2023-09-27T04:52:11.228Z,13.50
2023-09-27T04:55:13.650Z,13.60
2023-09-27T04:58:15.952Z,13.40
2023-09-27T05:01:18.153Z,13.60
2023-09-27T05:04:20.403Z,13.40
2023-09-27T05:07:22.634Z,13.60
2023-09-27T05:10:24.625Z,13.80
2023-09-27T05:13:26.758Z,13.60
2023-09-27T05:16:28.689Z,13.50
2023-09-27T05:19:30.700Z,13.40
2023-09-27T05:22:32.696Z,13.40
2023-09-27T05:25:34.691Z,13.30
2023-09-27T05:28:36.798Z,13.50
2023-09-27T05:31:38.821Z,13.20
2023-09-27T05:34:41.006Z,13.00
2023-09-27T05:37:43.300Z,13.10
2023-09-27T05:40:48.396Z,13.30
2023-09-27T05:43:50.388Z,13.40
2023-09-27T05:46:52.431Z,13.20
2023-09-27T05:49:54.510Z,13.40
2023-09-27T05:52:56.574Z,13.40
2023-09-27T05:56:00.926Z,13.60
2023-09-27T05:59:05.196Z,13.80
2023-09-27T06:02:07.606Z,13.80
2023-09-27T06:05:09.872Z,13.70
2023-09-27T06:08:11.834Z,13.70
2023-09-27T06:11:13.903Z,13.90
2023-09-27T06:14:15.902Z,13.90
2023-09-27T06:17:18.330Z,14.10
2023-09-27T06:20:20.526Z,14.20
2023-09-27T06:23:22.561Z,14.20
2023-09-27T06:26:24.647Z,14.20
2023-09-27T06:29:26.885Z,14.40
2023-09-27T06:32:29.765Z,14.50
2023-09-27T06:35:31.826Z,14.50
2023-09-27T06:38:33.951Z,14.80
2023-09-27T06:41:35.973Z,15.20
2023-09-27T06:44:38.200Z,15.50
2023-09-27T06:47:44.073Z,15.70
2023-09-27T06:50:46.187Z,15.80
2023-09-27T06:53:48.279Z,15.70
2023-09-27T06:56:50.450Z,15.70
2023-09-27T06:59:52.575Z,15.80
2023-09-27T07:02:55.094Z,15.90
2023-09-27T07:05:57.164Z,16.40
2023-09-27T07:08:59.477Z,16.80
2023-09-27T07:12:01.751Z,17.00
2023-09-27T07:15:04.559Z,18.00
2023-09-27T07:18:06.815Z,18.20
2023-09-27T07:21:11.182Z,18.40
2023-09-27T07:24:13.268Z,18.40
2023-09-27T07:27:15.406Z,18.50
2023-09-27T07:30:17.555Z,19.00
2023-09-27T07:33:19.774Z,19.50
2023-09-27T07:36:22.347Z,20.20
2023-09-27T07:39:24.486Z,20.50
2023-09-27T07:42:26.636Z,21.20
2023-09-27T07:45:28.622Z,21.40
2023-09-27T07:48:32.867Z,21.50
2023-09-27T07:51:35.515Z,22.30
2023-09-27T07:54:37.521Z,22.70
2023-09-27T07:57:39.581Z,23.00
2023-09-27T08:00:42.106Z,23.60
2023-09-27T08:03:44.399Z,23.50
2023-09-27T08:06:48.892Z,24.20
2023-09-27T08:09:54.290Z,24.00
2023-09-27T08:12:59.490Z,23.50
2023-09-27T08:16:01.487Z,23.90
2023-09-27T08:19:03.500Z,24.40
2023-09-27T08:22:05.823Z,25.20
2023-09-27T08:25:11.794Z,24.40
2023-09-27T08:28:13.824Z,24.20
2023-09-27T08:31:15.897Z,24.40
2023-09-27T08:34:17.931Z,24.10
2023-09-27T08:37:19.956Z,24.90
2023-09-27T08:40:21.976Z,25.50
2023-09-27T08:43:27.730Z,24.80
2023-09-27T08:46:32.172Z,25.20
2023-09-27T08:49:34.970Z,25.30
2023-09-27T08:52:37.946Z,25.10
2023-09-27T08:55:40.019Z,25.40
2023-09-27T08:58:42.406Z,25.00
2023-09-27T09:01:46.013Z,25.50
2023-09-27T09:04:48.363Z,25.20
2023-09-27T09:07:50.399Z,25.80
2023-09-27T09:10:54.558Z,24.90
2023-09-27T09:14:00.564Z,25.00
2023-09-27T09:17:02.654Z,25.50
2023-09-27T09:20:06.889Z,26.50
2023-09-27T09:23:09.101Z,25.50
2023-09-27T09:26:11.462Z,25.30
2023-09-27T09:29:13.777Z,25.20
2023-09-27T09:32:16.852Z,26.50
2023-09-27T09:35:34.534Z,26.90
2023-09-27T09:38:36.915Z,26.00
2023-09-27T09:41:51.221Z,25.80
2023-09-27T09:45:02.849Z,26.00
2023-09-27T09:48:05.157Z,25.50
2023-09-27T09:51:08.773Z,25.70
2023-09-27T09:54:11.468Z,25.30
2023-09-27T09:57:21.811Z,25.90
2023-09-27T10:00:31.404Z,25.90
2023-09-27T10:03:34.896Z,25.90
2023-09-27T10:06:48.729Z,26.30
2023-09-27T10:09:52.668Z,26.00
2023-09-27T10:12:55.860Z,26.30
2023-09-27T10:15:58.193Z,26.10
2023-09-27T10:19:02.467Z,25.80
2023-09-27T10:22:06.104Z,26.20
2023-09-27T10:25:26.804Z,26.30
2023-09-27T10:28:28.827Z,26.00
2023-09-27T10:31:35.068Z,25.80
2023-09-27T10:34:40.063Z,26.20
2023-09-27T10:38:02.349Z,26.00
2023-09-27T10:41:04.557Z,26.40
2023-09-27T10:44:06.826Z,26.30
2023-09-27T10:47:09.104Z,26.60
2023-09-27T10:50:11.353Z,26.20
2023-09-27T11:03:20.184Z,27.00
2023-09-27T11:06:22.362Z,25.90
2023-09-27T11:09:27.242Z,25.80
2023-09-27T11:12:29.243Z,25.70
2023-09-27T11:15:31.300Z,25.50
2023-09-27T11:18:37.673Z,25.40
2023-09-27T11:21:42.485Z,25.70
2023-09-27T11:24:44.466Z,25.50
2023-09-27T11:27:46.561Z,25.70
2023-09-27T11:30:57.556Z,25.50
2023-09-27T11:34:22.941Z,25.50
2023-09-27T11:37:25.764Z,25.50
2023-09-27T11:40:35.129Z,25.90
2023-09-27T11:43:37.239Z,25.90
2023-09-27T11:46:39.279Z,25.90
2023-09-27T11:49:41.370Z,25.90
2023-09-27T11:52:43.760Z,25.80
2023-09-27T11:55:45.815Z,25.70
2023-09-27T11:58:47.886Z,25.70
2023-09-27T12:01:50.615Z,25.80
2023-09-27T12:04:52.812Z,26.20
2023-09-27T12:08:08.101Z,25.90
2023-09-27T12:11:10.652Z,26.10
2023-09-27T12:14:13.185Z,25.80
2023-09-27T12:17:15.389Z,26.20
2023-09-27T12:20:31.735Z,26.30
2023-09-27T12:23:39.313Z,26.20
2023-09-27T12:26:41.499Z,26.20
2023-09-27T12:29:43.747Z,26.30
2023-09-27T12:32:45.941Z,26.50
2023-09-27T12:35:48.347Z,26.40
2023-09-27T12:38:50.537Z,26.40
2023-09-27T12:41:53.548Z,26.80
2023-09-27T12:44:56.073Z,26.60
2023-09-27T12:47:58.736Z,26.60
2023-09-27T12:51:00.930Z,26.60
2023-09-27T12:54:03.140Z,26.50
2023-09-27T12:57:05.596Z,26.50
2023-09-27T13:00:08.480Z,26.80
2023-09-27T13:03:10.690Z,26.80
2023-09-27T13:06:13.089Z,27.00
2023-09-27T13:09:15.276Z,26.90
2023-09-27T13:12:17.420Z,26.90
2023-09-27T13:15:19.461Z,27.00
2023-09-27T13:18:21.664Z,27.10
2023-09-27T13:21:23.838Z,27.10
2023-09-27T13:24:25.992Z,27.20
2023-09-27T13:27:28.248Z,27.20
2023-09-27T13:30:35.964Z,27.20
2023-09-27T13:33:38.759Z,27.20
2023-09-27T13:36:41.528Z,27.00
2023-09-27T13:39:43.742Z,27.20
2023-09-27T13:42:45.901Z,27.30
2023-09-27T13:45:50.527Z,27.20
2023-09-27T13:48:52.944Z,27.30
2023-09-27T13:51:55.398Z,27.30
2023-09-27T13:54:57.674Z,27.20
2023-09-27T13:57:59.804Z,27.20
2023-09-27T14:01:03.858Z,27.30
2023-09-27T14:04:06.226Z,27.40
2023-09-27T14:07:10.685Z,27.20
2023-09-27T14:10:12.736Z,27.20
2023-09-27T14:13:14.980Z,27.10
2023-09-27T14:16:18.139Z,27.10
2023-09-27T14:19:20.436Z,27.00
2023-09-27T14:22:22.816Z,27.10
2023-09-27T14:25:28.987Z,27.20
2023-09-27T14:28:31.306Z,27.10
2023-09-27T14:31:33.644Z,27.10
2023-09-27T14:37:42.301Z,27.00
2023-09-27T14:40:45.144Z,27.00
2023-09-27T14:43:47.387Z,27.00
2023-09-27T14:46:51.981Z,26.90
2023-09-27T14:49:54.160Z,27.00
2023-09-27T14:52:56.354Z,27.00
2023-09-27T14:56:12.030Z,26.90
2023-09-27T14:59:14.489Z,26.90
2023-09-27T15:02:17.015Z,26.90
2023-09-27T15:05:20.717Z,26.90
2023-09-27T15:08:23.750Z,26.70
2023-09-27T15:11:26.837Z,26.80
2023-09-27T15:14:28.973Z,26.80
2023-09-27T15:17:41.960Z,26.80
2023-09-27T15:20:44.102Z,26.70
2023-09-27T15:23:46.982Z,26.50
2023-09-27T15:26:49.719Z,26.40
2023-09-27T15:29:51.996Z,26.40
2023-09-27T15:32:54.081Z,26.40
2023-09-27T15:35:57.541Z,26.40
2023-09-27T15:39:01.285Z,26.30
2023-09-27T15:42:03.826Z,26.30
2023-09-27T15:45:09.420Z,26.20
2023-09-27T15:48:11.690Z,26.10
2023-09-27T15:51:17.982Z,26.10
2023-09-27T15:54:20.114Z,26.00
2023-09-27T15:57:22.278Z,26.10
2023-09-27T16:00:24.597Z,26.00
2023-09-27T16:03:26.805Z,25.80
2023-09-27T16:06:29.037Z,25.70
2023-09-27T16:09:31.113Z,25.80
2023-09-27T16:12:33.343Z,25.70
2023-09-27T16:15:35.546Z,25.60
2023-09-27T16:18:37.603Z,25.60
2023-09-27T16:21:39.707Z,25.70
2023-09-27T16:24:44.350Z,25.40
2023-09-27T16:27:46.594Z,25.20
2023-09-27T16:30:49.040Z,25.00
2023-09-27T16:33:51.901Z,24.80
2023-09-27T16:36:54.181Z,24.70
2023-09-27T16:39:56.417Z,24.50
2023-09-27T16:42:59.517Z,24.30
2023-09-27T16:46:07.397Z,24.20
2023-09-27T16:49:09.453Z,24.00
2023-09-27T16:52:11.764Z,23.80
2023-09-27T16:55:14.018Z,23.70
2023-09-27T16:58:16.143Z,23.50
2023-09-27T17:01:21.584Z,23.70
2023-09-27T17:04:23.715Z,23.60
2023-09-27T17:07:26.709Z,23.50
2023-09-27T17:10:28.862Z,23.30
2023-09-27T17:13:31.341Z,23.20
2023-09-27T17:16:33.529Z,23.10
2023-09-27T17:19:35.821Z,22.90
2023-09-27T17:22:40.745Z,22.80
2023-09-27T17:25:43.000Z,22.70
2023-09-27T17:28:45.607Z,22.50
2023-09-27T17:31:48.255Z,22.50
2023-09-27T17:34:50.454Z,22.30
2023-09-27T17:37:52.663Z,22.30
2023-09-27T17:40:56.240Z,22.20
2023-09-27T17:43:58.386Z,22.10
2023-09-27T17:47:00.806Z,22.00
2023-09-27T17:50:03.144Z,21.90
2023-09-27T17:53:05.349Z,21.80
2023-09-27T17:56:08.683Z,21.80
2023-09-27T17:59:10.848Z,21.50
2023-09-27T18:02:16.113Z,21.40
2023-09-27T18:05:18.303Z,21.40
2023-09-27T18:08:20.512Z,21.20
2023-09-27T18:11:22.987Z,21.20
2023-09-27T18:14:27.966Z,21.10
2023-09-27T18:17:30.110Z,20.90
2023-09-27T18:20:32.397Z,20.90
2023-09-27T18:23:34.749Z,20.90
2023-09-27T18:26:36.877Z,20.70
2023-09-27T18:29:39.098Z,20.70
2023-09-27T18:32:41.313Z,20.70
2023-09-27T18:35:43.522Z,20.70
2023-09-27T18:38:45.886Z,20.50
2023-09-27T18:41:48.006Z,20.40
2023-09-27T18:44:50.216Z,20.20
2023-09-27T18:47:54.722Z,20.20
2023-09-27T18:50:59.128Z,20.20
2023-09-27T18:54:01.194Z,20.10
2023-09-27T18:57:03.220Z,20.00
2023-09-27T19:00:07.753Z,20.10
2023-09-27T19:03:14.797Z,20.00
2023-09-27T19:06:17.086Z,19.90
2023-09-27T19:09:19.222Z,19.80
2023-09-27T19:12:21.338Z,19.70
2023-09-27T19:15:23.312Z,19.70
2023-09-27T19:18:25.449Z,19.50
2023-09-27T19:21:27.603Z,19.20
2023-09-27T19:24:29.639Z,19.20
2023-09-27T19:27:31.929Z,19.30
2023-09-27T19:30:34.490Z,19.20
2023-09-27T19:33:38.114Z,19.30
2023-09-27T19:36:40.212Z,19.00
2023-09-27T19:39:42.285Z,19.10
2023-09-27T19:42:44.478Z,19.00
2023-09-27T19:45:47.525Z,19.10
2023-09-27T19:48:49.734Z,19.00
2023-09-27T19:51:53.063Z,19.00
2023-09-27T19:55:02.053Z,19.00
2023-09-27T19:58:04.296Z,18.90
2023-09-27T20:01:06.617Z,18.90
2023-09-27T20:04:08.917Z,18.80
2023-09-27T20:07:23.552Z,18.80
2023-09-27T20:10:25.690Z,18.70
2023-09-27T20:13:27.853Z,18.70
2023-09-27T20:16:29.958Z,18.40
2023-09-27T20:19:32.548Z,18.50
2023-09-27T20:22:36.853Z,18.10
2023-09-27T20:25:39.047Z,17.90
2023-09-27T20:28:41.328Z,17.70
2023-09-27T20:31:44.135Z,17.40
2023-09-27T20:34:46.553Z,17.20
2023-09-27T20:37:48.838Z,17.20
2023-09-27T20:40:51.022Z,17.70
2023-09-27T20:43:53.374Z,17.50
2023-09-27T20:46:55.742Z,17.40
2023-09-27T20:49:57.987Z,17.40
2023-09-27T20:53:00.114Z,17.10
2023-09-27T20:56:03.363Z,17.10
2023-09-27T20:59:06.126Z,17.40
2023-09-27T21:02:08.249Z,17.30
2023-09-27T21:05:10.600Z,17.40
2023-09-27T21:08:12.883Z,17.20
2023-09-27T21:11:14.811Z,17.30
2023-09-27T21:14:17.422Z,17.50
2023-09-27T21:17:19.584Z,17.40
2023-09-27T21:20:21.916Z,17.30
2023-09-27T21:23:24.108Z,17.40
2023-09-27T21:26:26.250Z,17.50
2023-09-27T21:29:28.910Z,17.40
2023-09-27T21:32:31.097Z,17.50
2023-09-27T21:35:35.505Z,17.50
2023-09-27T21:38:38.878Z,17.50
2023-09-27T21:41:41.745Z,17.40
2023-09-27T21:44:44.542Z,17.40
2023-09-27T21:47:46.794Z,17.00
2023-09-27T21:50:49.218Z,16.80
2023-09-27T21:53:51.749Z,16.90
2023-09-27T21:57:00.188Z,16.90
2023-09-27T22:00:03.906Z,17.00
2023-09-27T22:03:14.125Z,16.80
2023-09-27T22:06:16.237Z,16.90
2023-09-27T22:09:19.448Z,16.70
2023-09-27T22:12:21.513Z,16.60
2023-09-27T22:15:23.677Z,16.90
2023-09-27T22:18:27.776Z,16.80
2023-09-27T22:21:31.974Z,16.80
2023-09-27T22:24:34.014Z,16.90
2023-09-27T22:27:40.551Z,16.70
2023-09-27T22:30:43.222Z,16.70
2023-09-27T22:33:45.663Z,16.70
2023-09-27T22:36:48.132Z,16.80
2023-09-27T22:39:58.068Z,16.80
2023-09-27T22:43:06.731Z,16.80
2023-09-27T22:46:08.741Z,16.90
2023-09-27T22:49:13.606Z,16.90
2023-09-27T22:52:15.646Z,16.80
2023-09-27T22:55:17.597Z,16.80
2023-09-27T22:58:21.240Z,16.70
2023-09-27T23:01:23.376Z,16.30
2023-09-27T23:04:26.018Z,16.20
2023-09-27T23:07:31.844Z,16.20
2023-09-27T23:10:35.517Z,16.40
2023-09-27T23:13:37.982Z,16.40
2023-09-27T23:16:42.620Z,16.40
2023-09-27T23:19:44.923Z,16.50
2023-09-27T23:22:47.273Z,16.50
2023-09-27T23:25:49.213Z,16.70
2023-09-27T23:28:51.181Z,16.50
2023-09-27T23:31:55.530Z,16.40
2023-09-27T23:35:00.048Z,16.60
2023-09-27T23:38:02.177Z,16.20
2023-09-27T23:41:04.237Z,16.40
2023-09-27T23:44:06.799Z,16.20
2023-09-27T23:47:08.969Z,16.10
2023-09-27T23:50:12.874Z,16.00
2023-09-27T23:53:15.406Z,16.30
2023-09-27T23:56:18.310Z,16.30
2023-09-27T23:59:20.469Z,16.30
